Terminal Aerodrome Forecast
Issued by NWS Jackson, MS

Home | Current Version | Previous Version | Text Only | Print | Product List | Glossary On
Versions: 1 2 3 4 5 6 7 8 9 10 11 12 13 14
000
FTUS44 KJAN 270732 AAA
TAFJAN
TAF AMD
KJAN 270732Z 2708/2806 16007KT P6SM BKN010 OVC015
     FM270900 18004KT P6SM VCSH OVC008
     FM271500 17007KT P6SM VCTS BKN015CB OVC040
     FM271800 20011KT P6SM VCTS SCT025 BKN035CB
     FM280000 19007KT P6SM SCT050 SCT100=

USA.gov is the U.S. government's official web portal to all federal, state and local government web resources and services.